sensor_id;sensor_type;location;lat;lon;timestamp;temperature;humidity
43015;DHT22;28637;50.554;7.032;2023-11-21T00:00:52;9.40;99.90
43015;DHT22;28637;50.554;7.032;2023-11-21T00:05:53;9.50;99.90
43015;DHT22;28637;50.554;7.032;2023-11-21T00:10:54;9.40;99.90
43015;DHT22;28637;50.554;7.032;2023-11-21T00:15:55;9.40;99.90
43015;DHT22;28637;50.554;7.032;2023-11-21T00:20:56;9.30;99.90
43015;DHT22;28637;50.554;7.032;2023-11-21T00:25:59;9.40;99.90
43015;DHT22;28637;50.554;7.032;2023-11-21T00:31:00;9.40;99.90
43015;DHT22;28637;50.554;7.032;2023-11-21T00:36:01;9.40;99.90
43015;DHT22;28637;50.554;7.032;2023-11-21T00:41:02;9.40;99.90
43015;DHT22;28637;50.554;7.032;2023-11-21T00:46:06;9.40;99.90
43015;DHT22;28637;50.554;7.032;2023-11-21T00:51:10;9.40;99.90
43015;DHT22;28637;50.554;7.032;2023-11-21T00:56:11;9.40;99.90
43015;DHT22;28637;50.554;7.032;2023-11-21T01:01:12;9.30;99.90
43015;DHT22;28637;50.554;7.032;2023-11-21T01:06:13;9.30;99.90
43015;DHT22;28637;50.554;7.032;2023-11-21T01:11:15;9.30;99.90
43015;DHT22;28637;50.554;7.032;2023-11-21T01:16:16;9.30;99.90
43015;DHT22;28637;50.554;7.032;2023-11-21T01:21:17;9.30;99.90
43015;DHT22;28637;50.554;7.032;2023-11-21T01:26:18;9.30;99.90
43015;DHT22;28637;50.554;7.032;2023-11-21T01:31:19;9.30;99.90
43015;DHT22;28637;50.554;7.032;2023-11-21T01:36:21;9.20;99.90
43015;DHT22;28637;50.554;7.032;2023-11-21T01:41:22;9.30;99.90
43015;DHT22;28637;50.554;7.032;2023-11-21T01:46:23;9.30;99.90
43015;DHT22;28637;50.554;7.032;2023-11-21T01:51:24;9.30;99.90
43015;DHT22;28637;50.554;7.032;2023-11-21T01:56:27;9.30;99.90
43015;DHT22;28637;50.554;7.032;2023-11-21T02:01:28;9.30;99.90
43015;DHT22;28637;50.554;7.032;2023-11-21T02:06:29;9.30;99.90
43015;DHT22;28637;50.554;7.032;2023-11-21T02:11:31;9.30;99.90
43015;DHT22;28637;50.554;7.032;2023-11-21T02:16:35;9.30;99.90
43015;DHT22;28637;50.554;7.032;2023-11-21T02:21:37;9.30;99.90
43015;DHT22;28637;50.554;7.032;2023-11-21T02:26:41;9.30;99.90
43015;DHT22;28637;50.554;7.032;2023-11-21T02:31:43;9.30;99.90
43015;DHT22;28637;50.554;7.032;2023-11-21T02:36:48;9.30;99.90
43015;DHT22;28637;50.554;7.032;2023-11-21T02:41:52;9.30;99.90
43015;DHT22;28637;50.554;7.032;2023-11-21T02:46:53;9.30;99.90
43015;DHT22;28637;50.554;7.032;2023-11-21T02:51:54;9.30;99.90
43015;DHT22;28637;50.554;7.032;2023-11-21T02:56:55;9.30;99.90
43015;DHT22;28637;50.554;7.032;2023-11-21T03:01:56;9.30;99.90
43015;DHT22;28637;50.554;7.032;2023-11-21T03:06:57;9.30;99.90
43015;DHT22;28637;50.554;7.032;2023-11-21T03:11:58;9.30;99.90
43015;DHT22;28637;50.554;7.032;2023-11-21T03:16:59;9.30;99.90
43015;DHT22;28637;50.554;7.032;2023-11-21T03:22:00;9.30;99.90
43015;DHT22;28637;50.554;7.032;2023-11-21T03:27:01;9.30;99.90
43015;DHT22;28637;50.554;7.032;2023-11-21T03:32:02;9.30;99.90
43015;DHT22;28637;50.554;7.032;2023-11-21T03:37:03;9.30;99.90
43015;DHT22;28637;50.554;7.032;2023-11-21T03:42:04;9.30;99.90
43015;DHT22;28637;50.554;7.032;2023-11-21T03:47:05;9.30;99.90
43015;DHT22;28637;50.554;7.032;2023-11-21T03:52:06;9.30;99.90
43015;DHT22;28637;50.554;7.032;2023-11-21T03:57:08;9.30;99.90
43015;DHT22;28637;50.554;7.032;2023-11-21T04:02:09;9.30;99.90
43015;DHT22;28637;50.554;7.032;2023-11-21T04:07:10;9.30;99.90
43015;DHT22;28637;50.554;7.032;2023-11-21T04:12:11;9.30;99.90
43015;DHT22;28637;50.554;7.032;2023-11-21T04:17:12;9.20;99.90
43015;DHT22;28637;50.554;7.032;2023-11-21T04:22:12;9.30;99.90
43015;DHT22;28637;50.554;7.032;2023-11-21T04:27:13;9.20;99.90
43015;DHT22;28637;50.554;7.032;2023-11-21T04:32:15;9.30;99.90
43015;DHT22;28637;50.554;7.032;2023-11-21T04:37:16;9.30;99.90
43015;DHT22;28637;50.554;7.032;2023-11-21T04:42:17;9.20;99.90
43015;DHT22;28637;50.554;7.032;2023-11-21T04:47:19;9.20;99.90
43015;DHT22;28637;50.554;7.032;2023-11-21T04:52:20;9.20;99.90
43015;DHT22;28637;50.554;7.032;2023-11-21T04:57:21;9.20;99.90
43015;DHT22;28637;50.554;7.032;2023-11-21T05:02:22;9.20;99.90
43015;DHT22;28637;50.554;7.032;2023-11-21T05:07:22;9.10;99.90
43015;DHT22;28637;50.554;7.032;2023-11-21T05:12:24;9.10;99.90
43015;DHT22;28637;50.554;7.032;2023-11-21T05:17:25;9.00;99.90
43015;DHT22;28637;50.554;7.032;2023-11-21T05:22:26;9.10;99.90
43015;DHT22;28637;50.554;7.032;2023-11-21T05:27:27;9.10;99.90
43015;DHT22;28637;50.554;7.032;2023-11-21T05:32:27;9.10;99.90
43015;DHT22;28637;50.554;7.032;2023-11-21T05:37:28;9.10;99.90
43015;DHT22;28637;50.554;7.032;2023-11-21T05:42:29;9.10;99.90
43015;DHT22;28637;50.554;7.032;2023-11-21T05:47:30;9.10;99.90
43015;DHT22;28637;50.554;7.032;2023-11-21T05:52:31;9.20;99.90
43015;DHT22;28637;50.554;7.032;2023-11-21T05:57:37;9.20;99.90
43015;DHT22;28637;50.554;7.032;2023-11-21T06:02:39;9.10;99.90
43015;DHT22;28637;50.554;7.032;2023-11-21T06:07:40;9.10;99.90
43015;DHT22;28637;50.554;7.032;2023-11-21T06:12:41;9.20;99.90
43015;DHT22;28637;50.554;7.032;2023-11-21T06:17:43;9.10;99.90
43015;DHT22;28637;50.554;7.032;2023-11-21T06:22:47;9.10;99.90
43015;DHT22;28637;50.554;7.032;2023-11-21T06:27:49;9.20;99.90
43015;DHT22;28637;50.554;7.032;2023-11-21T06:32:50;9.20;99.90
43015;DHT22;28637;50.554;7.032;2023-11-21T06:37:51;9.20;99.90
43015;DHT22;28637;50.554;7.032;2023-11-21T06:42:52;9.10;99.90
43015;DHT22;28637;50.554;7.032;2023-11-21T06:47:53;9.10;99.90
43015;DHT22;28637;50.554;7.032;2023-11-21T06:52:54;9.10;99.90
43015;DHT22;28637;50.554;7.032;2023-11-21T06:57:55;9.10;99.90
43015;DHT22;28637;50.554;7.032;2023-11-21T07:02:56;9.20;99.90
43015;DHT22;28637;50.554;7.032;2023-11-21T07:07:56;9.20;99.90
43015;DHT22;28637;50.554;7.032;2023-11-21T07:12:57;9.20;99.90
43015;DHT22;28637;50.554;7.032;2023-11-21T07:17:58;9.20;99.90
43015;DHT22;28637;50.554;7.032;2023-11-21T07:22:59;9.20;99.90
43015;DHT22;28637;50.554;7.032;2023-11-21T07:28:00;9.20;99.90
43015;DHT22;28637;50.554;7.032;2023-11-21T07:33:01;9.20;99.90
43015;DHT22;28637;50.554;7.032;2023-11-21T07:38:02;9.20;99.90
43015;DHT22;28637;50.554;7.032;2023-11-21T07:43:03;9.20;99.90
43015;DHT22;28637;50.554;7.032;2023-11-21T07:48:03;9.20;99.90
43015;DHT22;28637;50.554;7.032;2023-11-21T07:53:05;9.20;99.90
43015;DHT22;28637;50.554;7.032;2023-11-21T07:58:06;9.30;99.90
43015;DHT22;28637;50.554;7.032;2023-11-21T08:03:06;9.40;99.90
43015;DHT22;28637;50.554;7.032;2023-11-21T08:08:07;9.50;99.90
43015;DHT22;28637;50.554;7.032;2023-11-21T08:13:08;9.60;99.90
43015;DHT22;28637;50.554;7.032;2023-11-21T08:18:09;9.60;99.90
43015;DHT22;28637;50.554;7.032;2023-11-21T08:23:10;9.60;99.90
43015;DHT22;28637;50.554;7.032;2023-11-21T08:28:12;9.60;99.90
43015;DHT22;28637;50.554;7.032;2023-11-21T08:33:14;9.60;99.90
43015;DHT22;28637;50.554;7.032;2023-11-21T08:38:15;9.60;99.90
43015;DHT22;28637;50.554;7.032;2023-11-21T08:43:16;9.60;99.90
43015;DHT22;28637;50.554;7.032;2023-11-21T08:48:20;9.60;99.90
43015;DHT22;28637;50.554;7.032;2023-11-21T08:53:21;9.50;99.90
43015;DHT22;28637;50.554;7.032;2023-11-21T08:58:21;9.60;99.90
43015;DHT22;28637;50.554;7.032;2023-11-21T09:03:22;9.60;99.90
43015;DHT22;28637;50.554;7.032;2023-11-21T09:08:23;9.60;99.90
43015;DHT22;28637;50.554;7.032;2023-11-21T09:13:23;9.60;99.90
43015;DHT22;28637;50.554;7.032;2023-11-21T09:18:25;9.70;99.90
43015;DHT22;28637;50.554;7.032;2023-11-21T09:23:26;9.70;99.90
43015;DHT22;28637;50.554;7.032;2023-11-21T09:28:27;9.70;99.90
43015;DHT22;28637;50.554;7.032;2023-11-21T09:33:28;9.80;99.90
43015;DHT22;28637;50.554;7.032;2023-11-21T09:38:31;9.80;99.90
43015;DHT22;28637;50.554;7.032;2023-11-21T09:43:32;9.80;99.90
43015;DHT22;28637;50.554;7.032;2023-11-21T09:48:36;9.80;99.90
43015;DHT22;28637;50.554;7.032;2023-11-21T09:53:38;9.90;99.90
43015;DHT22;28637;50.554;7.032;2023-11-21T09:58:41;9.90;99.90
43015;DHT22;28637;50.554;7.032;2023-11-21T10:03:42;9.90;99.90
43015;DHT22;28637;50.554;7.032;2023-11-21T10:08:43;9.90;99.90
43015;DHT22;28637;50.554;7.032;2023-11-21T10:13:45;9.90;99.90
43015;DHT22;28637;50.554;7.032;2023-11-21T10:18:49;9.90;99.90
43015;DHT22;28637;50.554;7.032;2023-11-21T10:23:53;9.90;99.90
43015;DHT22;28637;50.554;7.032;2023-11-21T10:29:02;10.00;99.90
43015;DHT22;28637;50.554;7.032;2023-11-21T10:34:13;10.10;99.90
43015;DHT22;28637;50.554;7.032;2023-11-21T10:39:21;10.30;99.90
43015;DHT22;28637;50.554;7.032;2023-11-21T10:44:24;10.30;99.90
43015;DHT22;28637;50.554;7.032;2023-11-21T10:49:26;10.40;99.90
43015;DHT22;28637;50.554;7.032;2023-11-21T10:54:28;10.50;99.90
43015;DHT22;28637;50.554;7.032;2023-11-21T10:59:30;10.60;99.90
43015;DHT22;28637;50.554;7.032;2023-11-21T11:04:31;10.70;99.90
43015;DHT22;28637;50.554;7.032;2023-11-21T11:09:32;10.70;99.90
43015;DHT22;28637;50.554;7.032;2023-11-21T11:14:34;10.70;99.90
43015;DHT22;28637;50.554;7.032;2023-11-21T11:19:36;10.80;99.90
43015;DHT22;28637;50.554;7.032;2023-11-21T11:40:45;10.90;99.90
43015;DHT22;28637;50.554;7.032;2023-11-21T11:45:46;10.80;99.90
43015;DHT22;28637;50.554;7.032;2023-11-21T11:51:05;10.70;99.90
43015;DHT22;28637;50.554;7.032;2023-11-21T11:56:30;10.70;99.90
43015;DHT22;28637;50.554;7.032;2023-11-21T12:01:33;10.80;99.90
43015;DHT22;28637;50.554;7.032;2023-11-21T12:06:34;10.90;99.90
43015;DHT22;28637;50.554;7.032;2023-11-21T12:11:37;10.90;99.90
43015;DHT22;28637;50.554;7.032;2023-11-21T12:16:37;10.90;99.90
43015;DHT22;28637;50.554;7.032;2023-11-21T12:21:38;10.90;99.90
43015;DHT22;28637;50.554;7.032;2023-11-21T12:26:42;10.90;99.90
43015;DHT22;28637;50.554;7.032;2023-11-21T12:31:43;10.80;99.90
43015;DHT22;28637;50.554;7.032;2023-11-21T12:36:44;10.70;99.90
43015;DHT22;28637;50.554;7.032;2023-11-21T12:41:46;10.70;99.90
43015;DHT22;28637;50.554;7.032;2023-11-21T12:46:47;10.70;99.90
43015;DHT22;28637;50.554;7.032;2023-11-21T12:51:47;10.80;99.90
43015;DHT22;28637;50.554;7.032;2023-11-21T12:56:49;10.90;99.90
43015;DHT22;28637;50.554;7.032;2023-11-21T13:01:50;11.10;99.90
43015;DHT22;28637;50.554;7.032;2023-11-21T13:06:51;11.20;99.90
43015;DHT22;28637;50.554;7.032;2023-11-21T13:12:00;11.20;99.90
43015;DHT22;28637;50.554;7.032;2023-11-21T13:17:03;11.50;99.90
43015;DHT22;28637;50.554;7.032;2023-11-21T13:22:04;11.50;99.90
43015;DHT22;28637;50.554;7.032;2023-11-21T13:27:05;11.40;99.90
43015;DHT22;28637;50.554;7.032;2023-11-21T13:32:07;11.10;99.90
43015;DHT22;28637;50.554;7.032;2023-11-21T13:37:12;11.20;99.90
43015;DHT22;28637;50.554;7.032;2023-11-21T13:42:13;11.00;99.90
43015;DHT22;28637;50.554;7.032;2023-11-21T13:47:15;10.90;99.90
43015;DHT22;28637;50.554;7.032;2023-11-21T13:52:15;11.00;99.90
43015;DHT22;28637;50.554;7.032;2023-11-21T13:57:18;11.30;99.90
43015;DHT22;28637;50.554;7.032;2023-11-21T14:02:20;11.20;99.90
43015;DHT22;28637;50.554;7.032;2023-11-21T14:07:28;11.00;99.90
43015;DHT22;28637;50.554;7.032;2023-11-21T14:12:38;10.80;99.90
43015;DHT22;28637;50.554;7.032;2023-11-21T14:17:41;10.70;99.90
43015;DHT22;28637;50.554;7.032;2023-11-21T14:22:42;10.70;99.90
43015;DHT22;28637;50.554;7.032;2023-11-21T14:27:43;10.90;99.90
43015;DHT22;28637;50.554;7.032;2023-11-21T14:32:44;11.10;99.90
43015;DHT22;28637;50.554;7.032;2023-11-21T14:37:45;11.10;99.90
43015;DHT22;28637;50.554;7.032;2023-11-21T14:42:47;11.00;99.90
43015;DHT22;28637;50.554;7.032;2023-11-21T14:47:48;10.90;99.90
43015;DHT22;28637;50.554;7.032;2023-11-21T14:52:59;10.80;99.90
43015;DHT22;28637;50.554;7.032;2023-11-21T14:57:59;10.70;99.90
43015;DHT22;28637;50.554;7.032;2023-11-21T15:03:05;10.60;99.90
43015;DHT22;28637;50.554;7.032;2023-11-21T15:08:07;10.60;99.90
43015;DHT22;28637;50.554;7.032;2023-11-21T15:13:28;10.50;99.90
43015;DHT22;28637;50.554;7.032;2023-11-21T15:18:30;10.40;99.90
43015;DHT22;28637;50.554;7.032;2023-11-21T15:23:30;10.40;99.90
43015;DHT22;28637;50.554;7.032;2023-11-21T15:28:35;10.30;99.90
43015;DHT22;28637;50.554;7.032;2023-11-21T15:33:36;10.30;99.90
43015;DHT22;28637;50.554;7.032;2023-11-21T15:38:38;10.20;99.90
43015;DHT22;28637;50.554;7.032;2023-11-21T15:43:39;10.20;99.90
43015;DHT22;28637;50.554;7.032;2023-11-21T15:48:39;10.20;99.90
43015;DHT22;28637;50.554;7.032;2023-11-21T15:53:44;10.20;99.90
43015;DHT22;28637;50.554;7.032;2023-11-21T15:58:44;10.20;99.90
43015;DHT22;28637;50.554;7.032;2023-11-21T16:03:47;10.20;99.90
43015;DHT22;28637;50.554;7.032;2023-11-21T16:08:48;10.20;99.90
43015;DHT22;28637;50.554;7.032;2023-11-21T16:13:49;10.20;99.90
43015;DHT22;28637;50.554;7.032;2023-11-21T16:18:50;10.20;99.90
43015;DHT22;28637;50.554;7.032;2023-11-21T16:23:51;10.20;99.90
43015;DHT22;28637;50.554;7.032;2023-11-21T16:28:52;10.10;99.90
43015;DHT22;28637;50.554;7.032;2023-11-21T16:33:52;10.10;99.90
43015;DHT22;28637;50.554;7.032;2023-11-21T16:38:53;10.10;99.90
43015;DHT22;28637;50.554;7.032;2023-11-21T16:43:54;10.10;99.90
43015;DHT22;28637;50.554;7.032;2023-11-21T16:48:55;10.00;99.90
43015;DHT22;28637;50.554;7.032;2023-11-21T16:53:55;10.00;99.90
43015;DHT22;28637;50.554;7.032;2023-11-21T16:58:56;10.00;99.90
43015;DHT22;28637;50.554;7.032;2023-11-21T17:03:57;10.00;99.90
43015;DHT22;28637;50.554;7.032;2023-11-21T17:09:00;10.00;99.90
43015;DHT22;28637;50.554;7.032;2023-11-21T17:14:06;10.00;99.90
43015;DHT22;28637;50.554;7.032;2023-11-21T17:19:07;9.90;99.90
43015;DHT22;28637;50.554;7.032;2023-11-21T17:24:08;9.90;99.90
43015;DHT22;28637;50.554;7.032;2023-11-21T17:29:10;9.90;99.90
43015;DHT22;28637;50.554;7.032;2023-11-21T17:34:11;9.90;99.90
43015;DHT22;28637;50.554;7.032;2023-11-21T17:39:12;9.90;99.90
43015;DHT22;28637;50.554;7.032;2023-11-21T17:44:13;9.90;99.90
43015;DHT22;28637;50.554;7.032;2023-11-21T17:49:14;9.90;99.90
43015;DHT22;28637;50.554;7.032;2023-11-21T17:54:14;9.80;99.90
43015;DHT22;28637;50.554;7.032;2023-11-21T17:59:15;9.90;99.90
43015;DHT22;28637;50.554;7.032;2023-11-21T18:04:16;10.00;99.90
43015;DHT22;28637;50.554;7.032;2023-11-21T18:09:17;9.90;99.90
43015;DHT22;28637;50.554;7.032;2023-11-21T18:14:19;9.80;99.90
43015;DHT22;28637;50.554;7.032;2023-11-21T18:19:20;9.80;99.90
43015;DHT22;28637;50.554;7.032;2023-11-21T18:24:21;9.80;99.90
43015;DHT22;28637;50.554;7.032;2023-11-21T18:29:21;9.80;99.90
43015;DHT22;28637;50.554;7.032;2023-11-21T18:34:22;9.70;99.90
43015;DHT22;28637;50.554;7.032;2023-11-21T18:39:24;9.70;99.90
43015;DHT22;28637;50.554;7.032;2023-11-21T18:44:25;9.60;99.90
43015;DHT22;28637;50.554;7.032;2023-11-21T18:49:26;9.50;99.90
43015;DHT22;28637;50.554;7.032;2023-11-21T18:54:27;9.40;99.90
43015;DHT22;28637;50.554;7.032;2023-11-21T18:59:28;9.40;99.90
43015;DHT22;28637;50.554;7.032;2023-11-21T19:04:29;9.40;99.90
43015;DHT22;28637;50.554;7.032;2023-11-21T19:09:30;9.50;99.90
43015;DHT22;28637;50.554;7.032;2023-11-21T19:14:31;9.30;99.90
43015;DHT22;28637;50.554;7.032;2023-11-21T19:19:32;9.20;99.90
43015;DHT22;28637;50.554;7.032;2023-11-21T19:24:33;9.20;99.90
43015;DHT22;28637;50.554;7.032;2023-11-21T19:29:33;9.00;99.90
43015;DHT22;28637;50.554;7.032;2023-11-21T19:34:34;8.90;99.90
43015;DHT22;28637;50.554;7.032;2023-11-21T19:39:35;8.80;99.90
43015;DHT22;28637;50.554;7.032;2023-11-21T19:44:36;8.80;99.90
43015;DHT22;28637;50.554;7.032;2023-11-21T19:49:37;8.80;99.90
43015;DHT22;28637;50.554;7.032;2023-11-21T19:54:38;8.80;99.90
43015;DHT22;28637;50.554;7.032;2023-11-21T19:59:38;8.70;99.90
43015;DHT22;28637;50.554;7.032;2023-11-21T20:04:43;8.70;99.90
43015;DHT22;28637;50.554;7.032;2023-11-21T20:09:43;8.70;99.90
43015;DHT22;28637;50.554;7.032;2023-11-21T20:14:45;8.70;99.90
43015;DHT22;28637;50.554;7.032;2023-11-21T20:19:49;8.60;99.90
43015;DHT22;28637;50.554;7.032;2023-11-21T20:24:49;8.60;99.90
43015;DHT22;28637;50.554;7.032;2023-11-21T20:29:50;8.50;99.90
43015;DHT22;28637;50.554;7.032;2023-11-21T20:34:51;8.30;99.90
43015;DHT22;28637;50.554;7.032;2023-11-21T20:39:53;8.20;99.90
43015;DHT22;28637;50.554;7.032;2023-11-21T20:44:55;8.20;99.90
43015;DHT22;28637;50.554;7.032;2023-11-21T20:49:56;8.20;99.90
43015;DHT22;28637;50.554;7.032;2023-11-21T20:54:58;8.10;99.90
43015;DHT22;28637;50.554;7.032;2023-11-21T20:59:59;8.10;99.90
43015;DHT22;28637;50.554;7.032;2023-11-21T21:05:00;8.00;99.90
43015;DHT22;28637;50.554;7.032;2023-11-21T21:10:00;8.00;99.90
43015;DHT22;28637;50.554;7.032;2023-11-21T21:15:01;8.00;99.90
43015;DHT22;28637;50.554;7.032;2023-11-21T21:20:03;7.90;99.90
43015;DHT22;28637;50.554;7.032;2023-11-21T21:25:06;7.90;99.90
43015;DHT22;28637;50.554;7.032;2023-11-21T21:30:07;7.90;99.90
43015;DHT22;28637;50.554;7.032;2023-11-21T21:35:10;7.80;99.90
43015;DHT22;28637;50.554;7.032;2023-11-21T21:40:13;7.70;99.90
43015;DHT22;28637;50.554;7.032;2023-11-21T21:45:14;7.70;99.90
43015;DHT22;28637;50.554;7.032;2023-11-21T21:50:16;7.60;99.90
43015;DHT22;28637;50.554;7.032;2023-11-21T21:55:17;7.60;99.90
43015;DHT22;28637;50.554;7.032;2023-11-21T22:00:18;7.50;99.90
43015;DHT22;28637;50.554;7.032;2023-11-21T22:05:19;7.50;99.90
43015;DHT22;28637;50.554;7.032;2023-11-21T22:10:20;7.50;99.90
43015;DHT22;28637;50.554;7.032;2023-11-21T22:15:21;7.50;99.90
43015;DHT22;28637;50.554;7.032;2023-11-21T22:20:22;7.40;99.90
43015;DHT22;28637;50.554;7.032;2023-11-21T22:25:23;7.50;99.90
43015;DHT22;28637;50.554;7.032;2023-11-21T22:30:24;7.50;99.90
43015;DHT22;28637;50.554;7.032;2023-11-21T22:35:25;7.50;99.90
43015;DHT22;28637;50.554;7.032;2023-11-21T22:40:29;7.40;99.90
43015;DHT22;28637;50.554;7.032;2023-11-21T22:45:29;7.40;99.90
43015;DHT22;28637;50.554;7.032;2023-11-21T22:50:31;7.40;99.90
43015;DHT22;28637;50.554;7.032;2023-11-21T22:55:32;7.40;99.90
43015;DHT22;28637;50.554;7.032;2023-11-21T23:00:33;7.40;99.90
43015;DHT22;28637;50.554;7.032;2023-11-21T23:05:34;7.30;99.90
43015;DHT22;28637;50.554;7.032;2023-11-21T23:10:35;7.30;99.90
43015;DHT22;28637;50.554;7.032;2023-11-21T23:15:36;7.30;99.90
43015;DHT22;28637;50.554;7.032;2023-11-21T23:20:36;7.30;99.90
43015;DHT22;28637;50.554;7.032;2023-11-21T23:25:38;7.30;99.90
43015;DHT22;28637;50.554;7.032;2023-11-21T23:30:41;7.20;99.90
43015;DHT22;28637;50.554;7.032;2023-11-21T23:35:41;7.20;99.90
43015;DHT22;28637;50.554;7.032;2023-11-21T23:40:42;7.20;99.90
43015;DHT22;28637;50.554;7.032;2023-11-21T23:45:45;7.20;99.90
43015;DHT22;28637;50.554;7.032;2023-11-21T23:50:46;7.20;99.90
43015;DHT22;28637;50.554;7.032;2023-11-21T23:55:48;7.20;99.90
